Time;durP1;ratioP1;P1;durP2;ratioP2;P2;SDS_P1;SDS_P2;PMS_P1;PMS_P2;Temp;Humidity;BMP_temperature;BMP_pressure;BME280_temperature;BME280_humidity;BME280_pressure;Samples;Min_cycle;Max_cycle;Signal;HPM_P1;HPM_P2
2023/05/28 00:00:11;;;;;;;11.17;4.30;;;13.50;99.90;;;14.41;100.00;98400.44;5043777;28;20489;-76
2023/05/28 00:02:41;;;;;;;10.10;3.57;;;13.50;99.90;;;14.37;100.00;98401.88;5044284;28;21178;-77
2023/05/28 00:05:10;;;;;;;9.07;4.00;;;13.60;99.90;;;14.28;100.00;98397.78;5041672;28;20488;-77
2023/05/28 00:07:41;;;;;;;15.17;5.20;;;13.50;99.90;;;14.24;100.00;98398.38;5042783;28;20472;-78
2023/05/28 00:10:12;;;;;;;8.43;3.03;;;13.50;99.90;;;14.18;100.00;98393.94;5044863;28;20474;-77
2023/05/28 00:12:40;;;;;;;9.60;4.17;;;13.40;99.90;;;14.15;100.00;98399.59;5043653;28;20457;-77
2023/05/28 00:15:10;;;;;;;8.93;3.70;;;13.40;99.90;;;14.10;100.00;98397.56;5043697;28;21044;-77
2023/05/28 00:17:41;;;;;;;8.47;4.00;;;13.30;99.90;;;14.06;100.00;98391.09;5046036;28;20831;-77
2023/05/28 00:20:11;;;;;;;6.20;3.47;;;13.30;99.90;;;14.03;100.00;98394.13;5045162;28;20594;-77
2023/05/28 00:22:41;;;;;;;14.20;3.70;;;13.20;99.90;;;13.99;100.00;98388.44;5039179;28;20484;-77
2023/05/28 00:25:11;;;;;;;16.67;4.20;;;13.20;99.90;;;13.94;100.00;98388.25;5041303;28;20492;-77
2023/05/28 00:27:40;;;;;;;10.17;4.03;;;13.10;99.90;;;13.98;100.00;98391.28;5044812;28;20469;-77
2023/05/28 00:30:09;;;;;;;8.40;4.17;;;13.10;99.90;;;13.94;100.00;98388.25;5042276;28;20465;-77
2023/05/28 00:32:38;;;;;;;10.10;3.63;;;13.10;99.90;;;13.87;100.00;98392.69;5043606;28;20483;-77
2023/05/28 00:35:08;;;;;;;11.07;4.70;;;13.10;99.90;;;13.81;100.00;98388.22;5042390;28;20487;-77
2023/05/28 00:37:38;;;;;;;10.90;3.93;;;13.00;99.90;;;13.77;100.00;98391.44;5044126;28;20550;-76
2023/05/28 00:40:11;;;;;;;12.33;3.87;;;12.90;99.90;;;13.74;100.00;98386.59;5041004;28;20817;-76
2023/05/28 00:42:41;;;;;;;14.27;3.83;;;13.00;99.90;;;13.74;100.00;98391.84;5043178;28;20507;-77
2023/05/28 00:45:12;;;;;;;8.80;3.73;;;12.90;99.90;;;13.70;100.00;98388.81;5040663;28;20475;-77
2023/05/28 00:47:42;;;;;;;11.47;3.77;;;12.90;99.90;;;13.68;100.00;98392.63;5044615;28;21075;-77
2023/05/28 00:50:16;;;;;;;8.60;4.30;;;12.90;99.90;;;13.61;100.00;98385.53;5043405;28;20505;-77
2023/05/28 00:52:50;;;;;;;7.00;3.73;;;12.90;99.90;;;13.56;100.00;98382.72;5046471;28;20464;-77
2023/05/28 00:55:19;;;;;;;11.80;4.20;;;12.80;99.90;;;13.51;100.00;98381.66;5046509;28;20489;-77
2023/05/28 00:57:48;;;;;;;8.57;3.83;;;12.80;99.90;;;13.44;100.00;98378.19;5043231;28;20462;-76
2023/05/28 01:00:18;;;;;;;8.10;4.37;;;12.70;99.90;;;13.39;100.00;98384.06;5041686;28;20465;-78
2023/05/28 01:02:48;;;;;;;15.03;4.37;;;12.70;99.90;;;13.34;100.00;98381.19;5045651;28;20481;-76
2023/05/28 01:05:18;;;;;;;7.17;3.77;;;12.60;99.90;;;13.31;100.00;98386.84;5044357;28;20473;-77
2023/05/28 01:07:47;;;;;;;8.57;3.90;;;12.60;99.90;;;13.29;100.00;98382.81;5046333;28;20460;-77
2023/05/28 01:10:16;;;;;;;11.50;4.03;;;12.60;99.90;;;13.25;100.00;98387.63;5045441;28;20473;-77
2023/05/28 01:12:46;;;;;;;8.83;3.87;;;12.50;99.90;;;13.21;100.00;98386.41;5045807;28;20465;-77
2023/05/28 01:15:15;;;;;;;4.50;3.17;;;12.50;99.90;;;13.20;100.00;98379.53;5045732;28;20488;-77
2023/05/28 01:17:45;;;;;;;10.83;3.73;;;12.40;99.90;;;13.22;100.00;98376.72;5046305;28;20556;-76
2023/05/28 01:20:14;;;;;;;9.10;3.73;;;12.40;99.90;;;13.22;100.00;98379.34;5048808;28;20499;-77
2023/05/28 01:22:56;;;;;;;12.50;4.00;;;12.40;99.90;;;13.18;100.00;98376.28;5050341;28;20469;-77
2023/05/28 01:25:26;;;;;;;14.20;4.00;;;12.30;99.90;;;13.14;100.00;98375.06;5046677;28;20460;-77
2023/05/28 01:27:55;;;;;;;13.23;3.73;;;12.40;99.90;;;13.09;100.00;98383.50;5046531;28;20468;-77
2023/05/28 01:30:25;;;;;;;8.63;3.40;;;12.30;99.90;;;13.03;100.00;98375.56;5043781;28;20482;-77
2023/05/28 01:32:54;;;;;;;9.23;3.73;;;12.30;99.90;;;12.99;100.00;98379.59;5050923;28;20461;-77
2023/05/28 01:35:23;;;;;;;8.93;3.30;;;12.20;99.90;;;12.99;100.00;98375.16;5046644;28;20464;-76
2023/05/28 01:37:57;;;;;;;11.83;4.13;;;12.20;99.90;;;12.97;100.00;98378.97;5049440;28;20464;-77
2023/05/28 01:40:29;;;;;;;8.83;2.93;;;12.20;99.90;;;12.92;100.00;98369.03;5047562;28;20475;-77
2023/05/28 01:42:59;;;;;;;7.17;3.80;;;12.20;99.90;;;12.90;100.00;98372.88;5047449;28;20465;-76
2023/05/28 01:45:29;;;;;;;13.50;3.63;;;12.10;99.90;;;12.85;100.00;98373.44;5046458;28;20470;-77
2023/05/28 01:47:58;;;;;;;8.43;4.27;;;12.10;99.90;;;12.78;100.00;98377.03;5047553;28;20452;-77
2023/05/28 01:50:28;;;;;;;11.50;3.30;;;12.10;99.90;;;12.78;100.00;98371.78;5045668;28;20939;-77
2023/05/28 01:52:57;;;;;;;7.33;3.53;;;12.00;99.90;;;12.75;100.00;98375.63;5045331;28;20485;-78
2023/05/28 01:55:27;;;;;;;12.10;3.80;;;12.00;99.90;;;12.71;100.00;98374.38;5043784;28;20501;-77
2023/05/28 01:57:56;;;;;;;10.77;4.20;;;11.90;99.90;;;12.65;100.00;98375.16;5044982;28;20469;-77
2023/05/28 02:00:26;;;;;;;10.10;4.43;;;11.90;99.90;;;12.60;100.00;98373.09;5046466;28;20475;-77
2023/05/28 02:02:55;;;;;;;10.43;3.67;;;11.90;99.90;;;12.56;100.00;98373.69;5046045;28;20543;-76
2023/05/28 02:05:24;;;;;;;7.67;4.20;;;11.80;99.90;;;12.56;100.00;98371.06;5045500;28;20477;-77
2023/05/28 02:07:56;;;;;;;7.93;3.73;;;11.80;99.90;;;12.53;100.00;98371.41;5047372;28;20484;-77
2023/05/28 02:10:25;;;;;;;10.43;4.07;;;11.80;99.90;;;12.49;100.00;98375.44;5047798;28;20471;-80
2023/05/28 02:12:55;;;;;;;8.97;3.80;;;11.80;99.90;;;12.45;100.00;98368.97;5045519;28;20461;-77
2023/05/28 02:15:23;;;;;;;7.43;3.67;;;11.70;99.90;;;12.43;100.00;98370.94;5045834;28;21049;-77
2023/05/28 02:17:52;;;;;;;15.30;4.30;;;11.70;99.90;;;12.39;100.00;98367.88;5048175;28;20551;-77
2023/05/28 02:20:21;;;;;;;7.27;3.70;;;11.70;99.90;;;12.38;100.00;98366.28;5045059;28;21034;-77
2023/05/28 02:22:50;;;;;;;6.20;3.20;;;11.60;99.90;;;12.34;100.00;98362.41;5043781;28;21196;-76
2023/05/28 02:25:20;;;;;;;6.40;3.97;;;11.60;99.90;;;12.32;100.00;98364.41;5043582;28;20472;-77
2023/05/28 02:27:49;;;;;;;6.87;3.60;;;11.60;99.90;;;12.30;100.00;98365.59;5048173;28;20477;-77
2023/05/28 02:30:19;;;;;;;5.47;3.57;;;11.50;99.90;;;12.27;100.00;98360.75;5047034;28;20946;-77
2023/05/28 02:32:47;;;;;;;7.27;3.70;;;11.50;99.90;;;12.24;100.00;98359.31;5046560;28;20520;-77
2023/05/28 02:35:18;;;;;;;6.90;3.53;;;11.50;99.90;;;12.25;100.00;98357.50;5043275;28;20523;-77
2023/05/28 02:37:47;;;;;;;7.03;4.10;;;11.40;99.90;;;12.24;100.00;98355.88;5040125;28;20507;-76
2023/05/28 02:40:17;;;;;;;10.20;3.97;;;11.40;99.90;;;12.22;100.00;98350.81;5043057;28;20496;-77
2023/05/28 02:42:46;;;;;;;7.73;3.50;;;11.40;99.90;;;12.19;100.00;98348.56;5044755;28;20518;-78
2023/05/28 02:45:15;;;;;;;8.00;3.70;;;11.40;99.90;;;12.16;100.00;98343.72;5046670;28;20538;-77
2023/05/28 02:47:45;;;;;;;5.83;3.60;;;11.40;99.90;;;12.17;100.00;98349.78;5048236;28;20457;-76
2023/05/28 02:50:14;;;;;;;10.70;4.27;;;11.40;99.90;;;12.14;100.00;98347.53;5042531;28;20465;-76
2023/05/28 02:52:42;;;;;;;7.93;4.17;;;11.30;99.90;;;12.10;100.00;98349.72;5043888;28;20904;-80
2023/05/28 02:55:11;;;;;;;8.63;3.80;;;11.30;99.90;;;12.09;100.00;98342.84;5044609;28;21019;-77
2023/05/28 02:57:41;;;;;;;8.43;3.50;;;11.30;99.90;;;12.06;100.00;98348.47;5044218;28;20540;-76
2023/05/28 03:00:13;;;;;;;8.30;4.20;;;11.30;99.90;;;12.00;100.00;98344.00;5042614;28;21030;-77
2023/05/28 03:02:41;;;;;;;11.30;4.20;;;11.30;99.90;;;11.95;100.00;98348.97;5042938;28;20465;-77
2023/05/28 03:05:12;;;;;;;9.63;4.00;;;11.30;99.90;;;11.94;100.00;98344.75;5041340;28;20460;-77
2023/05/28 03:07:41;;;;;;;10.73;4.50;;;11.20;99.90;;;11.91;100.00;98355.56;5042072;28;20457;-76
2023/05/28 03:10:10;;;;;;;6.60;3.97;;;11.20;99.90;;;11.89;100.00;98349.72;5042624;28;20568;-77
2023/05/28 03:12:39;;;;;;;12.87;4.37;;;11.20;99.90;;;11.87;100.00;98349.91;5044023;28;20466;-77
2023/05/28 03:15:09;;;;;;;9.13;3.37;;;11.10;99.90;;;11.84;100.00;98352.91;5037444;28;20465;-77
2023/05/28 03:17:38;;;;;;;12.20;4.53;;;11.10;99.90;;;11.86;100.00;98357.97;5041999;28;20870;-77
2023/05/28 03:20:11;;;;;;;9.43;3.73;;;11.10;99.90;;;11.86;100.00;98357.97;5042582;28;20472;-77
2023/05/28 03:22:40;;;;;;;11.63;3.23;;;11.10;99.90;;;11.80;100.00;98358.72;5045311;28;20511;-77
2023/05/28 03:25:11;;;;;;;6.90;3.90;;;11.10;99.90;;;11.75;100.00;98347.97;5041931;28;20485;-77
2023/05/28 03:27:40;;;;;;;8.50;3.73;;;11.00;99.90;;;11.69;100.00;98356.56;5027447;28;20468;-77
2023/05/28 03:30:11;;;;;;;5.60;3.70;;;11.00;99.90;;;11.69;100.00;98357.38;5026397;28;20494;-77
2023/05/28 03:32:41;;;;;;;7.23;3.40;;;10.90;99.90;;;11.67;100.00;98353.28;5043703;28;20488;-77
2023/05/28 03:35:12;;;;;;;6.10;3.50;;;10.90;99.90;;;11.66;100.00;98356.94;5044306;28;21291;-77
2023/05/28 03:37:42;;;;;;;6.93;3.40;;;10.90;99.90;;;11.66;100.00;98351.69;5042099;28;20588;-77
2023/05/28 03:40:13;;;;;;;10.70;3.47;;;10.90;99.90;;;11.63;100.00;98352.84;5042989;28;20468;-76
2023/05/28 03:42:42;;;;;;;16.30;3.90;;;10.90;99.90;;;11.60;100.00;98353.22;5042540;28;20948;-76
2023/05/28 03:45:11;;;;;;;6.40;3.17;;;10.90;99.90;;;11.56;100.00;98347.56;5041396;28;21466;-77
2023/05/28 03:47:41;;;;;;;7.40;3.57;;;10.90;99.90;;;11.52;100.00;98348.91;5040881;28;20465;-78
2023/05/28 03:50:12;;;;;;;5.23;3.67;;;10.80;99.90;;;11.49;100.00;98351.91;5043966;28;20467;-77
2023/05/28 03:52:41;;;;;;;8.63;4.30;;;10.70;99.90;;;11.45;100.00;98352.47;5044493;28;20709;-77
2023/05/28 03:55:12;;;;;;;14.53;4.50;;;10.80;99.90;;;11.46;100.00;98354.09;5039539;28;20464;-77
2023/05/28 03:57:41;;;;;;;8.37;3.30;;;10.70;99.90;;;11.46;100.00;98351.47;5041069;28;20484;-77
2023/05/28 04:00:12;;;;;;;7.30;3.40;;;10.70;99.90;;;11.44;100.00;98349.03;5044910;28;20657;-76
2023/05/28 04:02:43;;;;;;;7.33;3.67;;;10.70;99.90;;;11.46;100.00;98343.59;5041159;28;20874;-77
2023/05/28 04:05:14;;;;;;;7.90;4.33;;;10.70;99.90;;;11.48;100.00;98349.50;5044294;28;20464;-78
2023/05/28 04:07:44;;;;;;;7.93;3.80;;;10.70;99.90;;;11.49;100.00;98351.09;5037445;28;20504;-77
2023/05/28 04:10:13;;;;;;;5.80;3.47;;;10.70;99.90;;;11.46;100.00;98344.44;5039686;28;20480;-77
2023/05/28 04:12:42;;;;;;;6.10;3.77;;;10.70;99.90;;;11.46;100.00;98354.09;5038992;28;20940;-77
2023/05/28 04:15:12;;;;;;;5.80;3.43;;;10.70;99.90;;;11.44;100.00;98351.66;5041633;28;20867;-76
2023/05/28 04:17:40;;;;;;;7.37;3.67;;;10.70;99.90;;;11.40;100.00;98353.03;5038676;28;20488;-77
2023/05/28 04:20:12;;;;;;;6.47;3.50;;;10.70;99.90;;;11.39;100.00;98354.00;5039408;28;20526;-75
2023/05/28 04:22:42;;;;;;;8.33;3.30;;;10.70;99.90;;;11.39;100.00;98353.19;5044326;28;20956;-77
2023/05/28 04:25:11;;;;;;;7.07;3.33;;;10.60;99.90;;;11.40;100.00;98354.81;5041035;28;20551;-75
2023/05/28 04:27:41;;;;;;;9.30;5.00;;;10.70;99.90;;;11.37;100.00;98342.94;5043041;28;21003;-77
2023/05/28 04:30:11;;;;;;;8.60;3.77;;;10.70;99.90;;;11.35;100.00;98354.59;5039061;28;20468;-76
2023/05/28 04:32:40;;;;;;;9.73;3.60;;;10.70;99.90;;;11.33;100.00;98360.00;5043871;28;20465;-76
2023/05/28 04:35:10;;;;;;;10.97;4.03;;;10.70;99.90;;;11.29;100.00;98361.34;5043945;28;20465;-77
2023/05/28 04:37:40;;;;;;;6.50;3.47;;;10.60;99.90;;;11.29;100.00;98360.53;5040431;28;20492;-77
2023/05/28 04:40:11;;;;;;;6.97;4.07;;;10.60;99.90;;;11.29;100.00;98374.44;5040850;28;20971;-76
2023/05/28 04:42:41;;;;;;;10.03;3.97;;;10.60;99.90;;;11.30;100.00;98378.69;5037717;28;20466;-77
2023/05/28 04:45:12;;;;;;;5.20;3.00;;;10.60;99.90;;;11.30;100.00;98373.44;5040259;28;20470;-76
2023/05/28 04:47:41;;;;;;;8.70;3.70;;;10.60;99.90;;;11.29;100.00;98376.25;5039168;28;20477;-76
2023/05/28 04:50:11;;;;;;;12.83;3.30;;;10.60;99.90;;;11.28;100.00;98375.44;5037406;28;20468;-76
2023/05/28 04:52:40;;;;;;;4.83;3.37;;;10.60;99.90;;;11.29;100.00;98377.06;5042139;28;20468;-77
2023/05/28 04:55:12;;;;;;;6.43;3.00;;;10.60;99.90;;;11.33;100.00;98378.31;5048322;28;20500;-76
2023/05/28 04:57:41;;;;;;;7.30;3.70;;;10.70;99.90;;;11.39;100.00;98374.16;5045767;28;20991;-76
2023/05/28 05:00:14;;;;;;;8.47;4.03;;;10.70;99.90;;;11.44;100.00;98380.47;5047681;28;20495;-76
2023/05/28 05:02:44;;;;;;;11.23;4.60;;;10.70;99.90;;;11.49;100.00;98382.53;5046181;28;20840;-76
2023/05/28 05:05:14;;;;;;;6.07;3.60;;;10.70;99.90;;;11.52;100.00;98385.56;5045682;28;20467;-77
2023/05/28 05:07:44;;;;;;;23.63;4.13;;;10.80;99.90;;;11.58;100.00;98382.25;5046607;28;20466;-77
2023/05/28 05:10:16;;;;;;;8.73;4.20;;;10.80;99.90;;;11.63;100.00;98387.72;5048424;28;20456;-76
2023/05/28 05:12:45;;;;;;;5.90;3.27;;;10.80;99.90;;;11.69;100.00;98396.66;5048507;28;20526;-77
2023/05/28 05:15:14;;;;;;;7.50;3.60;;;10.90;99.90;;;11.73;100.00;98384.03;5044470;28;20523;-77
2023/05/28 05:17:46;;;;;;;6.30;3.40;;;10.90;99.90;;;11.77;100.00;98380.03;5044364;28;20608;-76
2023/05/28 05:20:18;;;;;;;5.53;3.70;;;11.00;99.90;;;11.81;100.00;98370.81;5042533;28;20478;-76
2023/05/28 05:22:51;;;;;;;7.57;3.80;;;11.00;99.90;;;11.85;100.00;98375.50;5024201;28;20800;-76
2023/05/28 05:25:22;;;;;;;8.87;4.17;;;11.00;99.90;;;11.89;100.00;98379.38;5037596;28;20454;-76
2023/05/28 05:27:52;;;;;;;13.80;7.27;;;11.00;99.90;;;11.93;100.00;98371.94;5047752;28;20899;-77
2023/05/28 05:30:25;;;;;;;9.30;5.30;;;11.10;99.90;;;11.94;100.00;98371.75;5044794;28;20562;-77
2023/05/28 05:32:56;;;;;;;5.20;3.40;;;11.10;99.90;;;12.00;100.00;98381.50;5046282;28;20484;-77
2023/05/28 05:35:29;;;;;;;5.67;3.00;;;11.20;99.90;;;12.05;100.00;98379.09;5044968;28;20769;-77
2023/05/28 05:37:58;;;;;;;9.53;3.63;;;11.30;99.90;;;12.10;100.00;98376.75;5046425;28;20484;-77
2023/05/28 05:40:29;;;;;;;11.17;5.17;;;11.30;99.90;;;12.17;100.00;98381.22;5046742;28;20468;-78
2023/05/28 05:43:00;;;;;;;7.43;3.40;;;11.30;99.90;;;12.21;100.00;98378.06;5045069;28;20535;-76
2023/05/28 05:45:31;;;;;;;8.27;3.80;;;11.40;99.90;;;12.26;100.00;98372.22;5044697;28;20971;-76
2023/05/28 05:48:04;;;;;;;8.57;3.33;;;11.40;99.90;;;12.30;100.00;98374.28;5045741;28;20568;-76
2023/05/28 05:50:48;;;;;;;4.83;3.40;;;11.40;99.90;;;12.34;100.00;98369.47;5046461;28;20457;-76
2023/05/28 05:53:17;;;;;;;7.20;4.23;;;11.50;99.90;;;12.39;100.00;98367.88;5043239;28;20469;-77
2023/05/28 05:55:49;;;;;;;4.80;2.77;;;11.50;99.90;;;12.38;100.00;98358.41;5044811;28;20472;-76
2023/05/28 05:58:18;;;;;;;7.33;3.80;;;11.50;99.90;;;12.46;100.00;98360.88;5045465;28;20507;-78
2023/05/28 06:00:47;;;;;;;8.43;3.50;;;11.60;99.90;;;12.53;100.00;98372.22;5046093;28;20887;-76
2023/05/28 06:03:16;;;;;;;9.27;4.00;;;11.70;99.90;;;12.59;100.00;98370.66;5045647;28;20527;-76
2023/05/28 06:05:45;;;;;;;8.80;4.00;;;11.70;99.90;;;12.63;100.00;98367.44;5044894;28;20456;-76
2023/05/28 06:08:14;;;;;;;8.93;3.80;;;11.80;99.90;;;12.68;100.00;98373.94;5043229;28;20472;-77
2023/05/28 06:10:42;;;;;;;7.00;3.70;;;11.80;99.90;;;12.72;100.00;98370.75;5044732;28;20469;-76
2023/05/28 06:13:12;;;;;;;7.87;3.40;;;11.90;99.90;;;12.76;100.00;98360.69;5044332;28;20481;-76
2023/05/28 06:15:42;;;;;;;7.00;3.60;;;11.90;99.90;;;12.84;100.00;98368.41;5042552;28;21246;-77
2023/05/28 06:18:11;;;;;;;8.33;3.87;;;12.00;99.90;;;12.90;100.00;98368.44;5042682;28;20953;-76
2023/05/28 06:20:40;;;;;;;8.93;3.60;;;12.00;99.90;;;12.93;100.00;98370.69;5046359;28;20465;-76
2023/05/28 06:23:10;;;;;;;7.80;4.30;;;12.10;99.90;;;12.98;100.00;98363.00;5044728;28;20480;-77
2023/05/28 06:25:40;;;;;;;6.07;3.63;;;12.10;99.90;;;13.04;100.00;98359.63;5039974;28;20475;-76
2023/05/28 06:28:08;;;;;;;9.20;3.63;;;12.20;99.90;;;13.09;100.00;98362.50;5041771;28;21342;-77
2023/05/28 06:30:39;;;;;;;13.17;5.80;;;12.20;99.90;;;13.15;100.00;98365.38;5044566;28;20489;-77
2023/05/28 06:33:09;;;;;;;8.60;3.50;;;12.30;99.90;;;13.20;100.00;98362.94;5043365;28;20464;-77
2023/05/28 06:35:38;;;;;;;6.17;3.70;;;12.30;99.90;;;13.27;100.00;98367.22;5041782;28;21774;-77
2023/05/28 06:38:07;;;;;;;6.53;3.70;;;12.40;99.90;;;13.32;100.00;98356.97;5045816;28;20453;-76
2023/05/28 06:40:36;;;;;;;14.93;4.47;;;12.40;99.90;;;13.37;100.00;98354.53;5045565;28;20472;-76
2023/05/28 06:43:05;;;;;;;6.00;3.53;;;12.50;99.90;;;13.44;100.00;98354.56;5045095;28;20483;-77
2023/05/28 06:45:35;;;;;;;8.70;4.00;;;12.60;99.90;;;13.51;100.00;98356.19;5046065;28;20472;-77
2023/05/28 06:48:06;;;;;;;8.00;3.60;;;12.70;99.90;;;13.57;100.00;98355.41;5042905;28;20457;-77
2023/05/28 06:50:35;;;;;;;8.70;3.93;;;12.70;99.90;;;13.63;100.00;98355.63;5041908;28;20875;-77
2023/05/28 06:53:04;;;;;;;7.43;3.30;;;12.80;99.90;;;13.69;100.00;98346.94;5044524;28;20500;-76
2023/05/28 06:55:33;;;;;;;6.13;3.67;;;12.80;99.90;;;13.77;100.00;98355.47;5044273;28;20491;-77
2023/05/28 06:58:02;;;;;;;8.13;3.27;;;12.90;99.90;;;13.83;100.00;98354.66;5047457;28;20457;-78
2023/05/28 07:00:31;;;;;;;10.03;3.37;;;13.00;99.90;;;13.91;100.00;98359.75;5041689;28;20507;-76
2023/05/28 07:02:59;;;;;;;7.73;3.00;;;13.10;99.90;;;13.98;100.00;98357.13;5046262;28;20465;-76
2023/05/28 07:05:30;;;;;;;14.00;3.20;;;13.10;99.90;;;14.07;100.00;98366.41;5047170;28;20461;-76
2023/05/28 07:07:59;;;;;;;6.33;3.30;;;13.30;99.90;;;14.15;100.00;98363.59;5048611;28;20483;-77
2023/05/28 07:10:28;;;;;;;6.90;3.20;;;13.40;99.90;;;14.24;100.00;98357.13;5048226;28;20471;-77
2023/05/28 07:12:57;;;;;;;6.27;3.20;;;13.40;99.90;;;14.32;100.00;98348.22;5048029;28;20833;-77
2023/05/28 07:15:26;;;;;;;8.73;2.77;;;13.50;99.90;;;14.43;100.00;98358.97;5046846;28;21103;-77
2023/05/28 07:17:55;;;;;;;6.10;2.87;;;13.60;99.90;;;14.53;100.00;98351.47;5045880;28;20476;-77
2023/05/28 07:20:23;;;;;;;8.03;3.07;;;13.70;99.90;;;14.63;100.00;98342.34;5045701;28;20505;-77
2023/05/28 07:22:54;;;;;;;9.10;3.07;;;13.80;99.90;;;14.74;100.00;98346.97;5046838;28;20794;-77
2023/05/28 07:25:23;;;;;;;6.43;3.40;;;14.00;99.90;;;14.81;100.00;98359.13;5047840;28;20473;-77
2023/05/28 07:27:52;;;;;;;20.60;3.30;;;14.00;99.90;;;14.90;100.00;98355.25;5047216;28;20472;-77
2023/05/28 07:30:21;;;;;;;8.60;3.03;;;14.20;99.90;;;14.99;100.00;98358.47;5044969;28;20515;-77
2023/05/28 07:32:49;;;;;;;5.47;2.97;;;14.20;99.90;;;15.08;100.00;98355.41;5046252;28;20475;-77
2023/05/28 07:35:18;;;;;;;7.17;3.53;;;14.30;99.90;;;15.19;100.00;98356.56;5044478;28;20482;-78
2023/05/28 07:37:46;;;;;;;8.10;3.33;;;14.40;99.90;;;15.30;100.00;98355.94;5045987;28;21178;-77
2023/05/28 07:40:17;;;;;;;6.80;3.30;;;14.60;99.90;;;15.43;100.00;98355.88;5043282;28;20493;-77
2023/05/28 07:42:45;;;;;;;9.47;3.40;;;14.70;99.90;;;15.50;100.00;98356.66;5043504;28;20476;-76
2023/05/28 07:45:17;;;;;;;5.13;2.83;;;14.80;99.90;;;15.63;100.00;98352.34;5036338;28;21048;-77
2023/05/28 07:47:45;;;;;;;6.17;3.20;;;15.00;99.90;;;15.74;100.00;98356.94;5037010;28;20465;-76
2023/05/28 07:50:15;;;;;;;14.23;6.60;;;15.10;99.90;;;15.85;100.00;98346.53;5038148;28;20457;-76
2023/05/28 07:52:43;;;;;;;6.80;3.50;;;15.10;99.90;;;15.92;100.00;98346.50;5037865;28;20989;-77
2023/05/28 07:55:12;;;;;;;6.90;2.57;;;15.20;99.90;;;16.02;97.44;98349.47;5038907;28;20467;-77
2023/05/28 07:57:42;;;;;;;6.60;2.67;;;15.40;99.90;;;16.07;96.61;98344.34;5036676;28;20469;-77
2023/05/28 08:00:12;;;;;;;8.23;3.00;;;15.40;99.90;;;16.14;97.92;98349.59;5038183;28;20557;-77
2023/05/28 08:02:40;;;;;;;8.83;3.60;;;15.40;99.90;;;16.21;99.02;98345.06;5034910;28;21179;-76
2023/05/28 08:05:11;;;;;;;5.33;2.93;;;15.50;99.90;;;16.24;97.46;98345.44;5037030;28;20469;-76
2023/05/28 08:07:40;;;;;;;17.33;3.80;;;15.50;99.90;;;16.33;94.37;98338.84;5038868;28;20465;-76
2023/05/28 08:10:09;;;;;;;9.33;4.00;;;15.70;99.90;;;16.37;94.93;98340.03;5041368;28;20984;-75
2023/05/28 08:12:38;;;;;;;7.00;3.07;;;15.70;99.90;;;16.42;95.53;98337.53;5042974;28;20703;-77
2023/05/28 08:15:10;;;;;;;6.73;3.30;;;15.70;99.90;;;16.53;95.24;98328.09;5037465;28;20479;-76
2023/05/28 08:17:42;;;;;;;9.20;3.27;;;15.80;99.90;;;16.63;94.69;98328.44;5038939;28;20470;-76
2023/05/28 08:20:12;;;;;;;10.70;4.07;;;16.00;99.90;;;16.70;94.26;98326.53;5023710;28;20572;-77
2023/05/28 08:22:42;;;;;;;13.57;5.60;;;16.00;99.90;;;16.77;94.85;98329.94;5037530;28;20476;-79
2023/05/28 08:25:11;;;;;;;9.30;3.90;;;16.10;99.90;;;16.84;92.26;98329.84;5043711;28;20473;-76
2023/05/28 08:27:40;;;;;;;10.10;3.50;;;16.20;99.80;;;16.90;91.47;98324.50;5049092;28;20459;-76
2023/05/28 08:30:11;;;;;;;7.07;3.27;;;16.20;99.90;;;17.00;90.10;98318.72;5049517;28;20477;-76
2023/05/28 08:32:40;;;;;;;5.43;2.90;;;16.30;99.40;;;17.02;90.18;98311.38;5047981;28;20964;-76
2023/05/28 08:35:09;;;;;;;16.43;3.87;;;16.30;99.50;;;17.11;90.17;98304.78;5046775;28;20472;-76
2023/05/28 08:37:38;;;;;;;11.77;3.97;;;16.30;99.80;;;17.22;90.03;98309.28;5047296;28;20461;-76
2023/05/28 08:40:10;;;;;;;5.43;3.20;;;16.50;99.70;;;17.35;89.06;98310.97;5047724;28;20528;-76
2023/05/28 08:42:39;;;;;;;6.10;3.67;;;16.70;99.50;;;17.44;87.29;98299.84;5046060;28;20487;-76
2023/05/28 08:45:10;;;;;;;7.13;3.37;;;16.80;99.20;;;17.54;86.80;98304.59;5049341;28;20468;-77
2023/05/28 08:47:40;;;;;;;5.23;3.07;;;16.80;98.90;;;17.60;85.89;98296.59;5047676;28;20898;-76
2023/05/28 08:50:10;;;;;;;10.77;4.23;;;17.00;98.60;;;17.68;86.25;98299.94;5045714;28;20491;-77
2023/05/28 08:52:40;;;;;;;7.67;3.23;;;17.00;98.80;;;17.72;84.10;98296.63;5040127;28;20526;-76
2023/05/28 08:55:09;;;;;;;9.70;3.53;;;17.10;98.20;;;17.79;81.86;98300.00;5043859;28;20595;-77
2023/05/28 08:57:39;;;;;;;8.07;2.90;;;17.20;97.50;;;17.82;82.38;98299.53;5042161;28;20461;-75
2023/05/28 09:00:11;;;;;;;161.30;79.37;;;17.10;97.80;;;17.86;82.85;98297.25;5042879;28;20523;-77
2023/05/28 09:02:41;;;;;;;12.07;5.40;;;17.20;97.90;;;17.87;82.00;98298.84;5046901;28;20497;-77
2023/05/28 09:05:11;;;;;;;10.40;3.40;;;17.20;97.90;;;17.92;81.39;98298.97;5046736;28;20465;-77
2023/05/28 09:07:40;;;;;;;20.77;8.70;;;17.20;97.70;;;17.99;78.49;98295.19;5044672;28;20562;-76
2023/05/28 09:10:12;;;;;;;7.67;4.50;;;17.20;96.60;;;18.07;76.71;98288.75;5045295;28;20979;-76
2023/05/28 09:12:57;;;;;;;7.33;3.00;;;17.40;96.30;;;18.15;76.21;98288.44;5046584;28;20460;-77
2023/05/28 09:15:28;;;;;;;6.27;2.83;;;17.40;96.50;;;18.25;73.59;98286.00;5045919;28;20552;-76
2023/05/28 09:17:59;;;;;;;6.97;3.20;;;17.60;95.60;;;18.34;73.22;98289.91;5044878;28;20461;-76
2023/05/28 09:20:29;;;;;;;5.23;2.90;;;17.60;95.70;;;18.37;75.73;98294.75;5048146;28;20492;-76
2023/05/28 09:23:03;;;;;;;8.50;3.70;;;17.60;96.70;;;18.42;75.96;98289.59;5049657;28;20484;-77
2023/05/28 09:25:36;;;;;;;15.20;3.53;;;17.60;96.40;;;18.52;70.89;98286.38;5048170;28;20464;-77
2023/05/28 09:28:05;;;;;;;6.40;2.73;;;17.80;95.00;;;18.56;68.09;98292.81;5049145;28;20468;-76
2023/05/28 09:30:37;;;;;;;5.33;3.00;;;17.90;93.80;;;18.58;65.07;98285.44;5048508;28;20485;-77
2023/05/28 09:33:08;;;;;;;7.33;3.40;;;17.90;93.20;;;18.62;64.86;98285.78;5047151;28;20457;-77
2023/05/28 09:35:37;;;;;;;7.37;3.43;;;17.80;93.10;;;18.64;67.27;98287.16;5044568;28;20460;-76
2023/05/28 09:38:08;;;;;;;9.43;3.10;;;17.90;94.40;;;18.76;64.56;98285.31;5044099;28;21040;-77
2023/05/28 09:40:40;;;;;;;9.97;3.30;;;18.00;93.00;;;18.86;63.66;98272.25;5043288;28;20493;-76
2023/05/28 09:43:09;;;;;;;7.93;3.43;;;18.30;93.00;;;18.92;63.21;98275.81;5045999;28;20464;-77
2023/05/28 09:45:39;;;;;;;8.73;3.20;;;18.20;92.90;;;18.94;63.66;98279.06;5045029;28;20465;-77
2023/05/28 09:48:08;;;;;;;7.97;3.20;;;18.20;92.90;;;18.98;60.84;98281.00;5046216;28;20460;-77
2023/05/28 09:50:37;;;;;;;13.00;2.90;;;18.30;91.60;;;19.00;57.72;98278.09;5043634;28;20477;-77
2023/05/28 09:53:08;;;;;;;8.13;3.30;;;18.30;90.70;;;19.03;58.48;98269.69;5047704;28;20834;-76
2023/05/28 09:55:38;;;;;;;12.23;3.63;;;18.30;91.40;;;19.04;59.17;98273.94;5046091;28;20509;-77
2023/05/28 09:58:07;;;;;;;6.57;3.13;;;18.30;91.70;;;19.08;58.96;98267.94;5045391;28;20998;-76
2023/05/28 10:00:42;;;;;;;7.30;3.07;;;18.30;91.20;;;19.16;59.20;98264.09;5047503;28;20509;-76
2023/05/28 10:03:22;;;;;;;6.10;2.87;;;18.60;91.70;;;19.28;60.47;98272.81;5043595;28;20950;-76
2023/05/28 10:05:59;;;;;;;7.57;2.97;;;18.60;92.10;;;19.30;59.80;98267.28;5046521;28;20579;-76
2023/05/28 10:08:28;;;;;;;5.53;2.93;;;18.60;91.90;;;19.35;58.38;98270.03;5043911;28;20461;-76
2023/05/28 10:10:57;;;;;;;10.50;3.30;;;18.60;91.40;;;19.39;56.06;98265.88;5044082;28;20460;-76
2023/05/28 10:13:27;;;;;;;8.00;3.60;;;18.70;90.50;;;19.42;57.47;98263.56;5045709;28;20468;-77
2023/05/28 10:15:59;;;;;;;6.87;3.37;;;18.70;91.10;;;19.44;56.96;98258.81;5044854;28;20995;-76
2023/05/28 10:18:29;;;;;;;8.63;3.47;;;18.70;91.00;;;19.51;56.83;98264.78;5046108;28;20559;-76
2023/05/28 10:20:59;;;;;;;4.63;2.77;;;18.90;90.90;;;19.61;56.73;98261.50;5045923;28;20477;-76
2023/05/28 10:23:29;;;;;;;10.20;3.33;;;18.90;91.00;;;19.69;56.32;98271.72;5050110;28;20896;-76